Flight Track Log - Related Links

Times and Time Zones

All times are in EDT time to prevent confusion due to time zone crossing. See the UAL1208 flight status page for this flight to view local times or setup timezone preferences in your user account.

Time Position Orientation Groundspeed Altitude Reporting Facility
EDT Latitude Longitude Course Direction KTS MPH feet Rate Location/Type
Thu 07:09:17 PM 37.6950 -122.2890 46° Northeast 253 291 3,000  Level FlightAware ADS-B
Thu 07:09:42 PM 37.7170 -122.2600 46° Northeast 265 305 4,100 2,550 Climbing FlightAware ADS-B
Thu 07:09:57 PM 37.7290 -122.2440 47° Northeast 271 312 4,700 2,533 Climbing FlightAware ADS-B
Thu 07:10:27 PM 37.7550 -122.2080 48° Northeast 284 327 6,000 2,400 Climbing FlightAware ADS-B
Thu 07:10:37 PM 37.7620 -122.1960 54° Northeast 289 333 6,300 2,640 Climbing FlightAware ADS-B
Thu 07:10:52 PM 37.7720 -122.1680 66° East 295 339 7,100 3,067 Climbing FlightAware ADS-B
Thu 07:11:22 PM 37.7850 -122.1180 72° East 297 342 8,600 2,800 Climbing FlightAware ADS-B
Thu 07:11:37 PM 37.7900 -122.0990 72° East 294 338 9,200 2,182 Climbing FlightAware ADS-B
Thu 07:12:17 PM 37.8090 -122.0290 71° East 321 369 10,600 2,250 Climbing FlightAware ADS-B
Thu 07:12:57 PM 37.8270 -121.9570 72° East 330 380 12,200 2,400 Climbing FlightAware ADS-B
Thu 07:13:42 PM 37.8490 -121.8750 71° East 339 390 14,000 2,471 Climbing FlightAware ADS-B
Thu 07:14:22 PM 37.8700 -121.7960 71° East 344 396 15,700 2,259 Climbing FlightAware ADS-B
Thu 07:15:07 PM 37.8920 -121.7110 72° East 357 411 17,200 1,976 Climbing FlightAware ADS-B
Thu 07:15:47 PM 37.9130 -121.6310 72° East 370 426 18,500 2,025 Climbing FlightAware ADS-B
Thu 07:16:27 PM 37.9350 -121.5460 72° East 376 433 19,900 1,341 Climbing FlightAware ADS-B
Thu 07:17:12 PM 37.9610 -121.4460 72° East 414 476 20,400 918 Climbing FlightAware ADS-B
Thu 07:17:52 PM 37.9860 -121.3500 72° East 435 501 21,200 1,350 Climbing FlightAware ADS-B
Thu 07:18:32 PM 38.0110 -121.2530 72° East 443 510 22,200 1,553 Climbing FlightAware ADS-B
Thu 07:19:17 PM 38.0390 -121.1430 72° East 450 518 23,400 1,553 Climbing FlightAware ADS-B
Thu 07:19:57 PM 38.0650 -121.0430 72° East 455 524 24,400 1,412 Climbing FlightAware ADS-B
Thu 07:20:42 PM 38.0940 -120.9260 72° East 464 534 25,400 1,271 Climbing FlightAware ADS-B
Thu 07:21:22 PM 38.1180 -120.8230 73° East 471 542 26,200 1,125 Climbing FlightAware ADS-B
Thu 07:22:02 PM 38.1450 -120.7120 73° East 478 550 26,900 988 Climbing FlightAware ADS-B
Thu 07:22:47 PM 38.1730 -120.5960 73° East 485 558 27,600 1,020 Climbing FlightAware ADS-B
Thu 07:23:42 PM 38.2070 -120.4530 73° East 489 563 28,600 1,263 Climbing FlightAware ADS-B
Thu 07:24:22 PM 38.2290 -120.3270 77° East 489 563 29,600 1,020 Climbing FlightAware ADS-B
Thu 07:25:22 PM 38.2580 -120.1670 77° East 489 563 30,300 1,140 Climbing FlightAware ADS-B
Thu 07:26:02 PM 38.2770 -120.0470 79° East 489 563 31,500 1,425 Climbing FlightAware ADS-B
Thu 07:26:42 PM 38.2960 -119.9340 78° East 487 560 32,200 988 Climbing FlightAware ADS-B
Thu 07:27:27 PM 38.3180 -119.8080 77° East 489 563 32,900 975 Climbing FlightAware ADS-B
Thu 07:28:02 PM 38.3330 -119.7160 78° East 488 562 33,500 450 Climbing FlightAware ADS-B
Thu 07:28:47 PM 38.3520 -119.6030 78° East 488 562 33,500  Level FlightAware ADS-B
Thu 07:29:27 PM 38.3680 -119.5070 78° East 488 562 33,500 1,000 Level FlightAware ADS-B
Thu 07:30:17 PM 38.3960 -119.3340 78° East 489 563 35,000 857 Climbing FlightAware ADS-B
Thu 07:31:12 PM 38.4210 -119.1860 78° East 489 563 35,000  Level FlightAware ADS-B
Thu 07:31:52 PM 38.4370 -119.0900 78° East 489 563 35,000  Level FlightAware ADS-B
Thu 07:32:32 PM 38.4530 -118.9940 78° East 489 563 35,000  Level FlightAware ADS-B
Thu 07:33:12 PM 38.4690 -118.8980 78° East 489 563 35,000  Level FlightAware ADS-B
Thu 07:34:02 PM 38.4880 -118.7780 79° East 489 563 35,000  Level FlightAware ADS-B
Thu 07:34:52 PM 38.5080 -118.6580 78° East 489 563 35,000  Level FlightAware ADS-B
Thu 07:35:32 PM 38.5240 -118.5610 78° East 489 563 35,000  Level FlightAware ADS-B
Thu 07:36:22 PM 38.5440 -118.4410 78° East 489 563 35,000  Level FlightAware ADS-B
Thu 07:37:02 PM 38.5600 -118.3450 78° East 489 563 35,000  Level FlightAware ADS-B
Thu 07:37:42 PM 38.5760 -118.2490 78° East 489 563 35,000  Level FlightAware ADS-B
Thu 07:38:22 PM 38.5920 -118.1520 78° East 489 563 35,000  Level FlightAware ADS-B
Thu 07:39:12 PM 38.6120 -118.0320 78° East 489 563 35,000  Level FlightAware ADS-B
Thu 07:39:52 PM 38.6280 -117.9360 78° East 489 563 35,000  Level FlightAware ADS-B
Thu 07:40:32 PM 38.6440 -117.8390 78° East 489 563 35,000  Level FlightAware ADS-B
Thu 07:40:47 PM 38.6686 -117.5839 78° East 481 554 35,000  Level Oakland Center
Thu 07:41:48 PM 38.6933 -117.4139 79° East 482 555 35,000  Level Oakland Center
Thu 07:42:45 PM 38.7181 -117.2436 79° East 482 555 35,000  Level Salt Lake Center
Thu 07:43:47 PM 38.7422 -117.0742 80° East 481 554 35,000  Level Salt Lake Center
Thu 07:44:53 PM 38.7667 -116.9056 79° East 481 554 35,000  Level Oakland Center
Thu 07:45:51 PM 38.7897 -116.7369 80° East 478 550 35,000  Level Salt Lake Center
Thu 07:46:52 PM 38.8133 -116.5678 80° East 481 554 35,000  Level Salt Lake Center
Thu 07:47:54 PM 38.8364 -116.3989 80° East 480 552 35,000  Level Salt Lake Center
Thu 07:48:56 PM 38.8589 -116.2311 80° East 478 550 35,000  Level Salt Lake Center
Thu 07:49:58 PM 38.8817 -116.0622 80° East 477 549 35,000  Level Salt Lake Center
Thu 07:50:59 PM 38.9083 -115.8611 80° East 477 549 35,000  Level Salt Lake Center
Thu 07:52:01 PM 38.9319 -115.6919 80° East 479 551 35,000  Level Salt Lake Center
Thu 07:53:03 PM 38.9525 -115.5250 81° East 475 547 35,000  Level Salt Lake Center
Thu 07:54:05 PM 38.9761 -115.3500 80° East 478 550 35,000  Level Salt Lake Center
Thu 07:55:06 PM 38.9944 -115.1850 82° East 472 543 35,000  Level Salt Lake Center
Thu 07:56:08 PM 39.0147 -115.0200 81° East 468 539 35,000  Level Salt Lake Center
Thu 07:57:10 PM 39.0353 -114.8528 81° East 471 542 35,000  Level Salt Lake Center
Thu 07:58:12 PM 39.0558 -114.6850 81° East 473 544 35,000  Level Salt Lake Center
Thu 07:59:14 PM 39.0839 -114.4783 80° East 481 554 35,000  Level Salt Lake Center
Thu 08:00:15 PM 39.1044 -114.3097 81° East 478 550 35,000  Level Salt Lake Center
Thu 08:01:17 PM 39.1250 -114.1394 81° East 480 552 35,000  Level Salt Lake Center
Thu 08:02:19 PM 39.1436 -113.9683 82° East 481 554 35,000  Level Salt Lake Center
Thu 08:03:21 PM 39.1631 -113.7981 82° East 481 554 35,000  Level Salt Lake Center
Thu 08:04:22 PM 39.1817 -113.6275 82° East 480 552 35,000  Level Salt Lake Center
Thu 08:05:24 PM 39.2022 -113.4569 81° East 481 554 35,000  Level Salt Lake Center
Thu 08:06:26 PM 39.2203 -113.2858 82° East 481 554 35,000  Level Salt Lake Center
Thu 08:07:27 PM 39.2414 -113.0817 82° East 479 551 35,000  Level Salt Lake Center
Thu 08:12:37 PM 39.3550 -112.2170 82° East 484 557 35,000  Level FlightAware ADS-B
Thu 08:13:22 PM 39.3760 -112.0990 77° East 484 557 35,000  Level FlightAware ADS-B
Thu 08:14:12 PM 39.3980 -111.9790 77° East 484 557 35,000  Level FlightAware ADS-B
Thu 08:14:52 PM 39.4150 -111.8830 77° East 484 557 35,000  Level FlightAware ADS-B
Thu 08:15:32 PM 39.4320 -111.7870 77° East 484 557 35,000  Level FlightAware ADS-B
Thu 08:16:12 PM 39.4490 -111.6910 77° East 484 557 35,000  Level FlightAware ADS-B
Thu 08:16:52 PM 39.4660 -111.5950 77° East 484 557 35,000  Level FlightAware ADS-B
Thu 08:17:42 PM 39.4870 -111.4750 77° East 484 557 35,000  Level FlightAware ADS-B
Thu 08:18:22 PM 39.5050 -111.3790 76° East 484 557 35,000  Level FlightAware ADS-B
Thu 08:19:02 PM 39.5220 -111.2830 77° East 484 557 35,000  Level FlightAware ADS-B
Thu 08:19:42 PM 39.5390 -111.1870 77° East 484 557 35,000  Level FlightAware ADS-B
Thu 08:20:22 PM 39.5560 -111.0900 77° East 484 557 35,000  Level FlightAware ADS-B
Thu 08:21:12 PM 39.5770 -110.9700 77° East 484 557 35,000  Level FlightAware ADS-B
Thu 08:21:52 PM 39.5940 -110.8740 77° East 484 557 35,000  Level FlightAware ADS-B
Thu 08:22:32 PM 39.6120 -110.7780 76° East 484 557 35,000  Level FlightAware ADS-B
Thu 08:22:53 PM 39.6181 -110.4872 76° East 474 545 35,000  Level Salt Lake Center
Thu 08:23:55 PM 39.6422 -110.3283 79° East 470 541 35,000  Level Salt Lake Center
Thu 08:29:42 PM 39.7780 -109.3360 79° East 466 536 35,000  Level FlightAware ADS-B
Thu 08:30:32 PM 39.7970 -109.1930 80° East 465 535 35,000  Level FlightAware ADS-B
Thu 08:31:12 PM 39.8100 -109.0960 80° East 464 534 35,000  Level FlightAware ADS-B
Thu 08:31:57 PM 39.8270 -108.9600 81° East 461 531 35,000  Level FlightAware ADS-B
Thu 08:32:37 PM 39.8410 -108.8510 80° East 459 528 35,000  Level FlightAware ADS-B
Thu 08:33:17 PM 39.8550 -108.7450 80° East 456 525 35,000  Level FlightAware ADS-B
Thu 08:33:52 PM 39.8680 -108.6490 80° East 455 524 35,000  Level FlightAware ADS-B
Thu 08:34:57 PM 39.8890 -108.4820 81° East 456 525 35,000  Level FlightAware ADS-B
Thu 08:35:37 PM 39.9020 -108.3730 81° East 458 527 35,000  Level FlightAware ADS-B
Thu 08:36:12 PM 39.9140 -108.2750 81° East 460 529 35,000  Level FlightAware ADS-B
Thu 08:37:02 PM 39.9310 -108.1440 80° East 463 533 35,000  Level FlightAware ADS-B
Thu 08:37:57 PM 39.9490 -107.9970 81° East 465 535 35,000  Level FlightAware ADS-B
Thu 08:38:37 PM 39.9640 -107.8740 81° East 474 545 35,000  Level FlightAware ADS-B
Thu 08:39:22 PM 39.9780 -107.7570 81° East 471 542 35,000  Level FlightAware ADS-B
Thu 08:40:17 PM 39.9910 -107.6470 81° East 468 539 35,000  Level FlightAware ADS-B
Thu 08:41:02 PM 40.0110 -107.4720 81° East 460 529 35,000  Level FlightAware ADS-B
Thu 08:41:42 PM 40.0240 -107.3610 81° East 459 528 35,000  Level FlightAware ADS-B
Thu 08:42:27 PM 40.0390 -107.2370 81° East 465 535 35,000  Level FlightAware ADS-B
Thu 08:43:07 PM 40.0510 -107.1260 82° East 466 536 35,000  Level FlightAware ADS-B
Thu 08:43:51 PM 40.0662 -106.9930 81° East 465 535 35,000  Level FlightAware ADS-B
Thu 08:44:24 PM 40.0764 -106.9020 82° East 465 535 35,000  Level FlightAware ADS-B
Thu 08:44:56 PM 40.0863 -106.8130 82° East 464 534 35,000  Level FlightAware ADS-B
Thu 08:45:29 PM 40.0962 -106.7240 82° East 463 533 35,000  Level FlightAware ADS-B
Thu 08:46:18 PM 40.1109 -106.5900 82° East 460 529 35,000  Level FlightAware ADS-B
Thu 08:46:50 PM 40.1204 -106.5020 82° East 459 528 35,000  Level FlightAware ADS-B
Thu 08:47:35 PM 40.1337 -106.3780 82° East 457 526 35,000  Level FlightAware ADS-B
Thu 08:48:15 PM 40.1454 -106.2690 82° East 457 526 35,000  Level FlightAware ADS-B
Thu 08:48:50 PM 40.1552 -106.1750 82° East 455 524 35,000  Level FlightAware ADS-B
Thu 08:49:21 PM 40.1642 -106.0900 82° East 455 524 35,000  Level FlightAware ADS-B
Thu 08:49:53 PM 40.1733 -106.0020 82° East 454 522 35,000  Level FlightAware ADS-B
Thu 08:50:26 PM 40.1826 -105.9120 82° East 452 520 35,000  Level FlightAware ADS-B
Thu 08:51:01 PM 40.1922 -105.8180 82° East 451 519 35,000  Level FlightAware ADS-B
Thu 08:51:32 PM 40.2007 -105.7340 82° East 450 518 35,000  Level FlightAware ADS-B
Thu 08:52:03 PM 40.2090 -105.6520 82° East 448 516 35,000  Level FlightAware ADS-B
Thu 08:52:36 PM 40.2176 -105.5660 83° East 446 513 35,000  Level FlightAware ADS-B
Thu 08:53:18 PM 40.2289 -105.4530 83° East 444 511 35,000  Level FlightAware ADS-B
Thu 08:53:49 PM 40.2372 -105.3700 83° East 444 511 35,000  Level FlightAware ADS-B
Thu 08:54:21 PM 40.2453 -105.2860 83° East 444 511 35,000  Level FlightAware ADS-B
Thu 08:54:52 PM 40.2533 -105.2040 83° East 442 509 35,000  Level FlightAware ADS-B
Thu 08:55:22 PM 40.2607 -105.1240 83° East 438 504 35,000  Level FlightAware ADS-B
Thu 08:55:53 PM 40.2684 -105.0440 83° East 435 501 35,000  Level FlightAware ADS-B
Thu 08:56:23 PM 40.2759 -104.9650 83° East 433 498 35,000  Level FlightAware ADS-B
Thu 08:56:54 PM 40.2836 -104.8850 83° East 434 499 35,000  Level FlightAware ADS-B
Thu 08:57:24 PM 40.2911 -104.8060 83° East 436 502 35,000  Level FlightAware ADS-B
Thu 08:57:54 PM 40.2985 -104.7270 83° East 438 504 35,000  Level FlightAware ADS-B
Thu 08:58:24 PM 40.3058 -104.6470 83° East 442 509 35,000  Level FlightAware ADS-B
Thu 08:58:54 PM 40.3130 -104.5670 83° East 445 512 35,000  Level FlightAware ADS-B
Thu 08:59:25 PM 40.3202 -104.4870 83° East 444 511 35,000  Level FlightAware ADS-B
Thu 08:59:55 PM 40.3275 -104.4050 83° East 444 511 35,000  Level FlightAware ADS-B
Thu 09:00:25 PM 40.3347 -104.3250 83° East 446 513 35,000  Level FlightAware ADS-B
Thu 09:00:55 PM 40.3419 -104.2440 83° East 445 512 35,000  Level FlightAware ADS-B
Thu 09:01:25 PM 40.3491 -104.1640 83° East 444 511 35,000  Level FlightAware ADS-B
Thu 09:01:55 PM 40.3559 -104.0840 84° East 444 511 35,000  Level FlightAware ADS-B
Thu 09:02:28 PM 40.3634 -103.9960 84° East 446 513 35,000  Level FlightAware ADS-B
Thu 09:02:58 PM 40.3704 -103.9150 84° East 446 513 35,000  Level FlightAware ADS-B
Thu 09:03:28 PM 40.3772 -103.8350 84° East 449 517 35,000  Level FlightAware ADS-B
Thu 09:03:58 PM 40.3842 -103.7530 84° East 456 525 35,000  Level FlightAware ADS-B
Thu 09:04:29 PM 40.3913 -103.6680 84° East 457 526 35,000  Level FlightAware ADS-B
Thu 09:04:59 PM 40.3980 -103.5860 84° East 457 526 35,000 100 Level FlightAware ADS-B
Thu 09:05:29 PM 40.4047 -103.5030 84° East 458 527 35,100 885 Climbing FlightAware ADS-B
Thu 09:06:00 PM 40.4114 -103.4200 84° East 448 516 35,900 1,355 Climbing FlightAware ADS-B
Thu 09:06:31 PM 40.4182 -103.3360 84° East 442 509 36,500 1,065 Climbing FlightAware ADS-B
Thu 09:07:02 PM 40.4245 -103.2560 84° East 436 502 37,000 492 Climbing FlightAware ADS-B
Thu 09:07:32 PM 40.4309 -103.1770 84° East 441 507 37,000  Level FlightAware ADS-B
Thu 09:08:03 PM 40.4375 -103.0940 84° East 445 512 37,000  Level FlightAware ADS-B
Thu 09:08:34 PM 40.4440 -103.0110 84° East 451 519 37,000  Level FlightAware ADS-B
Thu 09:09:04 PM 40.4504 -102.9260 84° East 457 526 37,000  Level FlightAware ADS-B
Thu 09:09:34 PM 40.4567 -102.8430 84° East 461 531 37,000  Level FlightAware ADS-B
Thu 09:10:05 PM 40.4631 -102.7580 84° East 464 534 37,000  Level FlightAware ADS-B
Thu 09:10:35 PM 40.4693 -102.6750 84° East 463 533 37,000  Level FlightAware ADS-B
Thu 09:11:05 PM 40.4755 -102.5900 84° East 464 534 37,000  Level FlightAware ADS-B
Thu 09:11:35 PM 40.4816 -102.5060 85° East 464 534 37,000  Level FlightAware ADS-B
Thu 09:12:08 PM 40.4880 -102.4150 85° East 463 533 37,000  Level FlightAware ADS-B
Thu 09:12:40 PM 40.4944 -102.3260 85° East 463 533 37,000  Level FlightAware ADS-B
Thu 09:13:10 PM 40.5005 -102.2400 85° East 462 532 37,000  Level FlightAware ADS-B
Thu 09:13:41 PM 40.5068 -102.1540 84° East 461 531 37,000  Level FlightAware ADS-B
Thu 09:14:12 PM 40.5129 -102.0670 85° East 461 531 37,000  Level FlightAware ADS-B
Thu 09:14:42 PM 40.5186 -101.9840 85° East 461 531 37,000  Level FlightAware ADS-B
Thu 09:15:13 PM 40.5242 -101.9000 85° East 462 532 37,000  Level FlightAware ADS-B
Thu 09:15:43 PM 40.5299 -101.8150 85° East 464 534 37,000  Level FlightAware ADS-B
Thu 09:16:17 PM 40.5363 -101.7180 85° East 468 539 37,000  Level FlightAware ADS-B
Thu 09:16:48 PM 40.5420 -101.6310 85° East 469 540 37,000  Level FlightAware ADS-B
Thu 09:17:26 PM 40.5489 -101.5250 85° East 470 541 37,000  Level FlightAware ADS-B
Thu 09:17:58 PM 40.5548 -101.4320 85° East 472 543 37,000  Level FlightAware ADS-B
Thu 09:18:30 PM 40.5607 -101.3400 85° East 473 544 37,000  Level FlightAware ADS-B
Thu 09:19:01 PM 40.5662 -101.2520 85° East 474 545 37,000  Level FlightAware ADS-B
Thu 09:19:33 PM 40.5716 -101.1610 86° East 474 545 37,000  Level FlightAware ADS-B
Thu 09:20:47 PM 40.5822 -100.9769 86° East 474 545 37,000  Level Denver Center
Thu 09:21:49 PM 40.5939 -100.7861 85° East 475 547 37,000  Level Denver Center
Thu 09:22:51 PM 40.6025 -100.6242 86° East 472 543 37,000  Level Denver Center
Thu 09:23:53 PM 40.6131 -100.4339 86° East 472 543 37,000  Level Denver Center
Thu 09:24:55 PM 40.6222 -100.2717 86° East 468 539 37,000  Level Denver Center
Thu 09:25:57 PM 40.6317 -100.0811 86° East 469 540 37,000  Level Denver Center
Thu 09:26:59 PM 40.6408 -99.9175 86° East 470 541 37,000  Level Denver Center
Thu 09:28:01 PM 40.6489 -99.7397 87° East 467 537 37,000  Level Denver Center
Thu 09:29:03 PM 40.6578 -99.5689 86° East 468 539 37,000  Level Denver Center
Thu 09:30:05 PM 40.6669 -99.3647 87° East 468 539 37,000  Level Denver Center
Thu 09:31:07 PM 40.6747 -99.1961 86° East 464 534 37,000  Level Denver Center
Thu 09:31:57 PM 40.6806 -99.0617 87° East 466 536 37,000  Level Minneapolis Center
Thu 09:32:59 PM 40.6867 -98.8933 87° East 465 535 37,000  Level Minneapolis Center
Thu 09:34:01 PM 40.6942 -98.7239 87° East 466 536 37,000  Level Minneapolis Center
Thu 09:35:02 PM 40.7006 -98.5525 87° East 471 542 37,000  Level Minneapolis Center
Thu 09:36:04 PM 40.7075 -98.3447 87° East 475 547 37,000  Level Minneapolis Center
Thu 09:37:05 PM 40.7139 -98.1722 87° East 474 545 37,000  Level Minneapolis Center
Thu 09:38:07 PM 40.7200 -97.9994 87° East 475 547 37,000  Level Minneapolis Center
Thu 09:39:08 PM 40.7256 -97.8250 88° East 477 549 37,000  Level Minneapolis Center
Thu 09:40:10 PM 40.7311 -97.6486 88° East 480 552 37,000  Level Minneapolis Center
Thu 09:41:11 PM 40.7361 -97.4717 88° East 483 556 37,000  Level Minneapolis Center
Thu 09:42:13 PM 40.7417 -97.2850 88° East 484 557 37,000  Level Minneapolis Center
Thu 09:43:14 PM 40.7469 -97.1089 88° East 484 557 37,000  Level Minneapolis Center
Thu 09:44:16 PM 40.7511 -96.9311 88° East 486 559 37,000  Level Minneapolis Center
Thu 09:45:17 PM 40.7544 -96.7556 89° East 483 556 37,000  Level Minneapolis Center
Thu 09:50:47 PM 40.7730 -95.8730 89° East 483 556 37,000  Level FlightAware ADS-B
Thu 09:51:27 PM 40.7740 -95.7730 89° East 483 556 37,000  Level FlightAware ADS-B
Thu 09:52:07 PM 40.7750 -95.6720 89° East 483 556 37,000  Level FlightAware ADS-B
Thu 09:52:47 PM 40.7770 -95.5720 88° East 483 556 37,000  Level FlightAware ADS-B
Thu 09:53:37 PM 40.7780 -95.4470 89° East 483 556 37,000  Level FlightAware ADS-B
Thu 09:54:17 PM 40.7800 -95.3460 88° East 483 556 37,000  Level FlightAware ADS-B
Thu 10:00:12 PM 40.7860 -94.1520 89° East 467 537 37,000  Level FlightAware ADS-B
Thu 10:01:07 PM 40.7860 -94.0040 90° East 468 539 37,000  Level FlightAware ADS-B
Thu 10:01:37 PM 40.7860 -93.9310 90° East 468 539 37,000  Level FlightAware ADS-B
Thu 10:02:27 PM 40.7860 -93.8100 90° East 468 539 37,000  Level FlightAware ADS-B
Thu 10:03:07 PM 40.7860 -93.7120 90° East 468 539 37,000  Level FlightAware ADS-B
Thu 10:03:52 PM 40.7850 -93.5320 90° East 457 526 37,000  Level FlightAware ADS-B
Thu 10:04:32 PM 40.7840 -93.4210 91° East 455 524 37,000  Level FlightAware ADS-B
Thu 10:05:17 PM 40.7830 -93.2960 91° East 456 525 37,000  Level FlightAware ADS-B
Thu 10:05:57 PM 40.7820 -93.1810 91° East 459 528 37,000  Level FlightAware ADS-B
Thu 10:06:42 PM 40.7810 -93.0590 91° East 458 527 37,000  Level FlightAware ADS-B
Thu 10:07:22 PM 40.7800 -92.9480 91° East 457 526 37,000  Level FlightAware ADS-B
Thu 10:08:02 PM 40.7790 -92.8370 91° East 457 526 37,000  Level FlightAware ADS-B
Thu 10:08:47 PM 40.7780 -92.7180 91° East 457 526 37,000  Level FlightAware ADS-B
Thu 10:09:27 PM 40.7760 -92.6010 91° East 456 525 37,000  Level FlightAware ADS-B
Thu 10:10:12 PM 40.7740 -92.4760 91° East 457 526 37,000  Level FlightAware ADS-B
Thu 10:11:07 PM 40.7720 -92.3250 91° East 457 526 37,000  Level FlightAware ADS-B
Thu 10:11:47 PM 40.7700 -92.2100 91° East 458 527 37,000  Level FlightAware ADS-B
Thu 10:12:32 PM 40.7680 -92.0870 91° East 458 527 37,000  Level FlightAware ADS-B
Thu 10:13:12 PM 40.7660 -91.9800 91° East 458 527 37,000  Level FlightAware ADS-B
Thu 10:13:52 PM 40.7640 -91.8620 91° East 455 524 37,000  Level FlightAware ADS-B
Thu 10:14:37 PM 40.7610 -91.7430 92° East 454 522 37,000  Level FlightAware ADS-B
Thu 10:15:17 PM 40.7590 -91.6290 91° East 455 524 37,000  Level FlightAware ADS-B
Thu 10:16:02 PM 40.7560 -91.5040 92° East 455 524 37,000  Level FlightAware ADS-B
Thu 10:16:42 PM 40.7540 -91.3910 91° East 455 524 37,000  Level FlightAware ADS-B
Thu 10:17:17 PM 40.7510 -91.2950 92° East 457 526 37,000  Level FlightAware ADS-B
Thu 10:18:07 PM 40.7480 -91.1540 92° East 458 527 37,000  Level FlightAware ADS-B
Thu 10:18:47 PM 40.7450 -91.0450 92° East 459 528 37,000  Level FlightAware ADS-B
Thu 10:19:32 PM 40.7420 -90.9170 92° East 460 529 37,000  Level FlightAware ADS-B
Thu 10:20:02 PM 40.7390 -90.8370 93° East 461 531 37,000  Level FlightAware ADS-B
Thu 10:20:52 PM 40.7350 -90.6940 92° East 463 533 37,000  Level FlightAware ADS-B
Thu 10:21:37 PM 40.7320 -90.5780 92° East 463 533 37,000  Level FlightAware ADS-B
Thu 10:22:17 PM 40.7280 -90.4540 92° East 464 534 37,000  Level FlightAware ADS-B
Thu 10:22:57 PM 40.7240 -90.3420 93° East 465 535 37,000  Level FlightAware ADS-B
Thu 10:23:42 PM 40.7200 -90.2190 92° East 465 535 37,000  Level FlightAware ADS-B
Thu 10:24:22 PM 40.7160 -90.1010 93° East 464 534 37,000  Level FlightAware ADS-B
Thu 10:25:02 PM 40.7120 -89.9910 93° East 465 535 37,000  Level FlightAware ADS-B
Thu 10:25:47 PM 40.7080 -89.8670 92° East 466 536 37,000  Level FlightAware ADS-B
Thu 10:26:27 PM 40.7040 -89.7580 93° East 467 537 37,000  Level FlightAware ADS-B
Thu 10:27:12 PM 40.6980 -89.6200 93° East 468 539 37,000  Level FlightAware ADS-B
Thu 10:27:52 PM 40.6940 -89.5150 93° East 469 540 37,000  Level FlightAware ADS-B
Thu 10:28:37 PM 40.6890 -89.3780 93° East 470 541 37,000  Level FlightAware ADS-B
Thu 10:29:17 PM 40.6840 -89.2610 93° East 471 542 37,000  Level FlightAware ADS-B
Thu 10:29:57 PM 40.6790 -89.1490 93° East 469 540 37,000  Level FlightAware ADS-B
Thu 10:30:37 PM 40.6740 -89.0390 93° East 466 536 37,000  Level FlightAware ADS-B
Thu 10:31:22 PM 40.6690 -88.9140 93° East 464 534 37,000  Level FlightAware ADS-B
Thu 10:32:02 PM 40.6640 -88.8040 93° East 462 532 37,000  Level FlightAware ADS-B
Thu 10:32:47 PM 40.6580 -88.6730 93° East 462 532 37,000  Level FlightAware ADS-B
Thu 10:33:27 PM 40.6520 -88.5610 94° East 461 531 37,000  Level FlightAware ADS-B
Thu 10:34:07 PM 40.6470 -88.4510 93° East 459 528 37,000  Level FlightAware ADS-B
Thu 10:34:52 PM 40.6410 -88.3340 94° East 459 528 37,000  Level FlightAware ADS-B
Thu 10:35:32 PM 40.6350 -88.2140 94° East 460 529 37,000  Level FlightAware ADS-B
Thu 10:36:17 PM 40.6280 -88.0870 94° East 461 531 37,000  Level FlightAware ADS-B
Thu 10:36:57 PM 40.6230 -87.9740 93° East 464 534 37,000  Level FlightAware ADS-B
Thu 10:37:42 PM 40.6160 -87.8480 94° East 465 535 37,000  Level FlightAware ADS-B
Thu 10:38:22 PM 40.6090 -87.7330 95° East 466 536 37,000  Level FlightAware ADS-B
Thu 10:39:02 PM 40.6030 -87.6210 94° East 467 537 37,000  Level FlightAware ADS-B
Thu 10:39:47 PM 40.5960 -87.4950 94° East 469 540 37,000  Level FlightAware ADS-B
Thu 10:40:22 PM 40.5900 -87.3970 95° East 470 541 37,000  Level FlightAware ADS-B
Thu 10:41:12 PM 40.5830 -87.2620 94° East 470 541 37,000  Level FlightAware ADS-B
Thu 10:41:52 PM 40.5760 -87.1480 95° East 468 539 37,000  Level FlightAware ADS-B
Thu 10:42:32 PM 40.5680 -87.0230 95° East 467 537 37,000  Level FlightAware ADS-B
Thu 10:43:17 PM 40.5610 -86.9040 94° East 466 536 37,000  Level FlightAware ADS-B
Thu 10:43:57 PM 40.5530 -86.7840 95° East 465 535 37,000  Level FlightAware ADS-B
Thu 10:44:37 PM 40.5460 -86.6810 95° East 464 534 37,000  Level FlightAware ADS-B
Thu 10:45:22 PM 40.5380 -86.5460 94° East 459 528 37,000  Level FlightAware ADS-B
Thu 10:46:02 PM 40.5310 -86.4480 95° East 454 522 37,000  Level FlightAware ADS-B
Thu 10:46:47 PM 40.5220 -86.3170 95° East 453 521 37,000  Level FlightAware ADS-B
Thu 10:47:27 PM 40.5150 -86.2050 95° East 452 520 37,000  Level FlightAware ADS-B
Thu 10:48:27 PM 40.5030 -86.0380 95° East 454 522 37,000  Level FlightAware ADS-B
Thu 10:49:17 PM 40.4940 -85.9100 95° East 455 524 37,000  Level FlightAware ADS-B
Thu 10:50:02 PM 40.4850 -85.7820 95° East 457 526 37,000  Level FlightAware ADS-B
Thu 10:50:47 PM 40.4750 -85.6560 96° East 456 525 37,000  Level FlightAware ADS-B
Thu 10:51:27 PM 40.4650 -85.5510 97° East 457 526 37,000  Level FlightAware ADS-B
Thu 10:52:12 PM 40.4550 -85.4260 96° East 457 526 37,000  Level FlightAware ADS-B
Thu 10:52:52 PM 40.4450 -85.3170 97° East 458 527 37,000  Level FlightAware ADS-B
Thu 10:53:32 PM 40.4360 -85.2110 96° East 458 527 37,000  Level FlightAware ADS-B
Thu 10:54:17 PM 40.4240 -85.0780 97° East 459 528 37,000  Level FlightAware ADS-B
Thu 10:54:57 PM 40.4150 -84.9710 96° East 459 528 37,000  Level FlightAware ADS-B
Thu 10:55:42 PM 40.4030 -84.8440 97° East 457 526 37,000  Level FlightAware ADS-B
Thu 10:56:22 PM 40.3920 -84.7290 97° East 455 524 37,000  Level FlightAware ADS-B
Thu 10:57:02 PM 40.3820 -84.6200 97° East 454 522 37,000  Level FlightAware ADS-B
Thu 10:57:47 PM 40.3710 -84.4990 97° East 452 520 37,000  Level FlightAware ADS-B
Thu 10:58:27 PM 40.3600 -84.3890 97° East 451 519 37,000  Level FlightAware ADS-B
Thu 10:59:12 PM 40.3490 -84.2720 97° East 450 518 37,000  Level FlightAware ADS-B
Thu 10:59:52 PM 40.3390 -84.1640 97° East 449 517 37,000  Level FlightAware ADS-B
Thu 11:00:32 PM 40.3280 -84.0540 97° East 447 514 37,000  Level FlightAware ADS-B
Thu 11:01:17 PM 40.3160 -83.9340 97° East 445 512 37,000  Level FlightAware ADS-B
Thu 11:01:57 PM 40.3050 -83.8260 98° East 444 511 37,000  Level FlightAware ADS-B
Thu 11:02:42 PM 40.2930 -83.7080 98° East 443 510 37,000  Level FlightAware ADS-B
Thu 11:03:22 PM 40.2820 -83.6010 98° East 444 511 37,000  Level FlightAware ADS-B
Thu 11:04:02 PM 40.2710 -83.4920 97° East 449 517 37,000  Level FlightAware ADS-B
Thu 11:04:47 PM 40.2590 -83.3760 98° East 450 518 37,000  Level FlightAware ADS-B
Thu 11:05:27 PM 40.2480 -83.2680 98° East 451 519 37,000  Level FlightAware ADS-B
Thu 11:06:12 PM 40.2350 -83.1460 98° East 453 521 37,000  Level FlightAware ADS-B
Thu 11:06:52 PM 40.2230 -83.0360 98° East 454 522 37,000  Level FlightAware ADS-B
Thu 11:07:32 PM 40.2110 -82.9260 98° East 457 526 37,000  Level FlightAware ADS-B
Thu 11:08:17 PM 40.1980 -82.8050 98° East 458 527 37,000  Level FlightAware ADS-B
Thu 11:08:57 PM 40.1860 -82.6930 98° East 458 527 37,000  Level FlightAware ADS-B
Thu 11:09:42 PM 40.1720 -82.5720 99° East 458 527 37,000  Level FlightAware ADS-B
Thu 11:10:17 PM 40.1620 -82.4780 98° East 457 526 37,000  Level FlightAware ADS-B
Thu 11:10:57 PM 40.1490 -82.3660 99° East 456 525 37,000  Level FlightAware ADS-B
Thu 11:11:42 PM 40.1330 -82.2430 100° East 454 522 37,000  Level FlightAware ADS-B
Thu 11:12:22 PM 40.1180 -82.1380 101° East 454 522 37,000  Level FlightAware ADS-B
Thu 11:13:02 PM 40.1030 -82.0260 100° East 453 521 37,000  Level FlightAware ADS-B
Thu 11:13:47 PM 40.0870 -81.9090 100° East 452 520 37,000  Level FlightAware ADS-B
Thu 11:14:27 PM 40.0720 -81.8020 100° East 454 522 37,000  Level FlightAware ADS-B
Thu 11:15:07 PM 40.0570 -81.6930 100° East 454 522 37,000  Level FlightAware ADS-B
Thu 11:15:52 PM 40.0400 -81.5740 101° East 455 524 37,000  Level FlightAware ADS-B
Thu 11:16:32 PM 40.0250 -81.4660 100° East 455 524 37,000  Level FlightAware ADS-B
Thu 11:17:17 PM 40.0070 -81.3430 101° East 457 526 37,000  Level FlightAware ADS-B
Thu 11:17:57 PM 39.9910 -81.2330 101° East 458 527 37,000  Level FlightAware ADS-B
Thu 11:18:37 PM 39.9760 -81.1260 100° East 460 529 37,000  Level FlightAware ADS-B
Thu 11:19:22 PM 39.9580 -81.0050 101° East 461 531 37,000  Level FlightAware ADS-B
Thu 11:20:02 PM 39.9410 -80.8920 101° East 462 532 37,000  Level FlightAware ADS-B
Thu 11:20:47 PM 39.9240 -80.7710 100° East 462 532 37,000  Level FlightAware ADS-B
Thu 11:21:27 PM 39.9070 -80.6600 101° East 463 533 37,000  Level FlightAware ADS-B
Thu 11:22:12 PM 39.8890 -80.5400 101° East 463 533 37,000  Level FlightAware ADS-B
Thu 11:22:52 PM 39.8740 -80.4400 101° East 463 533 37,000  Level FlightAware ADS-B
Thu 11:23:32 PM 39.8560 -80.3240 101° East 463 533 37,000  Level FlightAware ADS-B
Thu 11:24:17 PM 39.8370 -80.2010 101° East 464 534 37,000  Level FlightAware ADS-B
Thu 11:24:57 PM 39.8220 -80.1030 101° East 464 534 37,000  Level FlightAware ADS-B
Thu 11:25:42 PM 39.8010 -79.9690 101° East 463 533 37,000 -212 Level FlightAware ADS-B
Thu 11:26:22 PM 39.7860 -79.8680 101° East 457 526 36,700 -1,553 Descending FlightAware ADS-B
Thu 11:27:07 PM 39.7660 -79.7430 102° East 454 522 34,800 -2,753 Descending FlightAware ADS-B
Thu 11:27:47 PM 39.7490 -79.6360 102° East 458 527 32,800 -2,700 Descending FlightAware ADS-B
Thu 11:28:27 PM 39.7320 -79.5320 102° East 453 521 31,200 -2,400 Descending FlightAware ADS-B
Thu 11:29:12 PM 39.7130 -79.4140 102° East 442 509 29,400 -2,259 Descending FlightAware ADS-B
Thu 11:29:52 PM 39.6960 -79.3090 102° East 433 498 28,000 -2,175 Descending FlightAware ADS-B
Thu 11:30:32 PM 39.6790 -79.2060 102° East 424 488 26,500 -2,118 Descending FlightAware ADS-B
Thu 11:31:17 PM 39.6610 -79.0950 102° East 412 474 25,000 -1,694 Descending FlightAware ADS-B
Thu 11:31:57 PM 39.6410 -79.0030 106° East 397 457 24,100 -1,800 Descending FlightAware ADS-B
Thu 11:32:37 PM 39.6230 -78.9160 105° East 391 450 22,600 -2,118 Descending FlightAware ADS-B
Thu 11:33:22 PM 39.6000 -78.8130 106° East 384 442 21,100 -1,129 Descending FlightAware ADS-B
Thu 11:34:02 PM 39.5810 -78.7240 105° East 381 438 21,000 -71 Descending FlightAware ADS-B
Thu 11:34:47 PM 39.5590 -78.6230 106° East 384 442 21,000 -71 Level FlightAware ADS-B
Thu 11:35:27 PM 39.5400 -78.5380 106° East 380 437 20,900 -1,059 Descending FlightAware ADS-B
Thu 11:36:12 PM 39.5180 -78.4380 106° East 370 426 19,500 -1,765 Descending FlightAware ADS-B
Thu 11:36:52 PM 39.4990 -78.3540 106° East 358 412 18,400 -1,875 Descending FlightAware ADS-B
Thu 11:37:32 PM 39.4810 -78.2730 106° East 357 411 17,000 -2,259 Descending FlightAware ADS-B
Thu 11:38:17 PM 39.4610 -78.1800 106° East 355 409 15,200 -1,694 Descending FlightAware ADS-B
Thu 11:38:57 PM 39.4430 -78.1010 106° East 332 382 14,600 -450 Descending FlightAware ADS-B
Thu 11:39:37 PM 39.4260 -78.0250 106° East 327 376 14,600  Level FlightAware ADS-B
Thu 11:40:12 PM 39.4130 -77.9670 106° East 325 374 14,600  Level FlightAware ADS-B
Thu 11:41:02 PM 39.3920 -77.8750 106° East 327 376 14,600  Level FlightAware ADS-B
Thu 11:41:47 PM 39.3950 -77.7780 88° East 331 381 14,600  Level FlightAware ADS-B
Thu 11:42:27 PM 39.4030 -77.7010 82° East 326 375 14,600 -847 Level FlightAware ADS-B
Thu 11:43:12 PM 39.4000 -77.6180 93° East 313 360 13,400 -1,553 Descending FlightAware ADS-B
Thu 11:43:52 PM 39.3960 -77.5490 94° East 306 352 12,400 -1,575 Descending FlightAware ADS-B
Thu 11:44:32 PM 39.3920 -77.4700 94° East 298 343 11,300 -1,624 Descending FlightAware ADS-B
Thu 11:45:17 PM 39.3870 -77.3910 95° East 289 333 10,100 -1,371 Descending FlightAware ADS-B
Thu 11:45:42 PM 39.3850 -77.3530 94° East 283 326 9,700 -1,200 Descending FlightAware ADS-B
Thu 11:46:12 PM 39.3820 -77.3000 94° East 272 313 9,000 -1,527 Descending FlightAware ADS-B
Thu 11:46:37 PM 39.3800 -77.2580 94° East 268 308 8,300 -1,745 Descending FlightAware ADS-B
Thu 11:47:07 PM 39.3770 -77.2110 95° East 265 305 7,400 -1,700 Descending FlightAware ADS-B
Thu 11:47:37 PM 39.3740 -77.1660 95° East 262 302 6,600 -1,636 Descending FlightAware ADS-B
Thu 11:48:02 PM 39.3720 -77.1260 94° East 256 295 5,900 -1,527 Descending FlightAware ADS-B
Thu 11:48:32 PM 39.3690 -77.0850 95° East 252 290 5,200 -1,418 Descending FlightAware ADS-B
Thu 11:48:57 PM 39.3670 -77.0510 94° East 248 285 4,600 -1,560 Descending FlightAware ADS-B
Thu 11:49:22 PM 39.3600 -77.0150 104° East 245 282 3,900 -1,500 Descending FlightAware ADS-B
Thu 11:49:37 PM 39.3550 -77.0000 113° Southeast 243 280 3,600 -1,400 Descending FlightAware ADS-B
Thu 11:50:22 PM 39.3350 -76.9340 111° Southeast 226 260 2,500 -1,286 Descending FlightAware ADS-B
Thu 11:50:47 PM 39.3270 -76.9070 111° Southeast 204 235 2,100 -436 Descending FlightAware ADS-B
Thu 11:51:17 PM 39.3180 -76.8760 111° Southeast 167 192 2,100  Level FlightAware ADS-B
Thu 11:51:47 PM 39.3110 -76.8520 111° Southeast 163 188 2,100  Level FlightAware ADS-B
Thu 11:52:12 PM 39.3030 -76.8270 112° Southeast 162 186 2,100  Level FlightAware ADS-B
Thu 11:52:37 PM 39.2960 -76.8040 111° Southeast 162 186 2,100  Level FlightAware ADS-B
Thu 11:52:57 PM 39.2900 -76.7870 115° Southeast 163 188 2,100 -120 Level FlightAware ADS-B
Thu 11:53:27 PM 39.2750 -76.7650 131° Southeast 170 196 2,000 -500 Descending FlightAware ADS-B
Thu 11:53:57 PM 39.2580 -76.7490 144° Southeast 159 183 1,600 -500 Descending FlightAware ADS-B
Thu 11:54:27 PM 39.2420 -76.7340 144° Southeast 159 183 1,500 -200 Descending FlightAware ADS-B

Login

Don't have an account? Register now (free) for customized features, flight alerts, and more!